PWSweather.com
Personal Weather Stations
Station Observations
719732
Ponferrada, PonferradaES 24411

PonferradaPonferradaES 24411

Lat: 42.5728, Lon: -6.6425

Elevation: 1676

Station Type: PCE-FWS 20 con garita Ambient Weather SRS100LX

www.meteo.spyfly.es

High Low Average
Temperature 48.2°F9.0°C 27.3°F-2.6°C 36.4°F2.4°C
Dew Point 33.3°F0.7°C 23.2°F-4.9°C 27.0°F-2.8°C
Winds 6.0 mph 9.7 kmh Calm Calm 1.0 mph SE1.6 kmh SE
Wind Gusts 9.8 mph15.8 kmh -- 4.0 mph6.4 kmh
Humidity 89% 40% 70%
Pressure 30.39 in1029.1 mb 30.16 in1021.3 mb -
Precipitation 0.02 in0.5 mm - -
Hour Temp Dew Point Humidity Winds Wind Gusts Pressure Precip Precip Rate Daily Precip Total
12:00 AM 33.8°F1.0°C 28.3°F-2.1°C 80% Calm Calm 2.2 mph3.5 kmh 30.16 in1021.3 mb 0.00 in0.0 mm 0.00 in0.0 mm 0.02 in0.5 mm
12:05 AM 33.6°F0.9°C 28.4°F-2.0°C 81% 6.0 mph S9.7 kmh S 9.8 mph15.8 kmh 30.16 in1021.3 mb 0.00 in0.0 mm 0.00 in0.0 mm 0.02 in0.5 mm
12:10 AM 34.2°F1.2°C 29.3°F-1.5°C 82% 3.1 mph S5.0 kmh S 9.8 mph15.8 kmh 30.17 in1021.7 mb 0.00 in0.0 mm 0.00 in0.0 mm 0.02 in0.5 mm
12:15 AM 34.0°F1.1°C 28.8°F-1.8°C 81% 4.5 mph N7.2 kmh N 9.8 mph15.8 kmh 30.17 in1021.7 mb 0.00 in0.0 mm 0.00 in0.0 mm 0.02 in0.5 mm
12:20 AM 34.5°F1.4°C 29.6°F-1.3°C 82% 1.6 mph WSW2.6 kmh WSW 8.3 mph13.4 kmh 30.17 in1021.7 mb 0.00 in0.0 mm 0.00 in0.0 mm 0.02 in0.5 mm
12:25 AM 35.1°F1.7°C 29.8°F-1.2°C 81% 2.2 mph SSW3.5 kmh SSW 8.3 mph13.4 kmh 30.18 in1022.0 mb 0.00 in0.0 mm 0.00 in0.0 mm 0.02 in0.5 mm
12:30 AM 35.2°F1.8°C 29.7°F-1.3°C 80% 3.1 mph SE5.0 kmh SE 5.4 mph8.7 kmh 30.18 in1022.0 mb 0.00 in0.0 mm 0.00 in0.0 mm 0.02 in0.5 mm
12:35 AM 35.1°F1.7°C 29.2°F-1.6°C 79% 1.6 mph NNE2.6 kmh NNE 4.5 mph7.2 kmh 30.18 in1022.0 mb 0.00 in0.0 mm 0.00 in0.0 mm 0.02 in0.5 mm
12:40 AM 35.1°F1.7°C 28.9°F-1.7°C 78% 0.7 mph NNW1.1 kmh NNW 4.5 mph7.2 kmh 30.18 in1022.0 mb 0.00 in0.0 mm 0.00 in0.0 mm 0.02 in0.5 mm
12:45 AM 34.7°F1.5°C 28.6°F-1.9°C 78% 1.6 mph W2.6 kmh W 3.1 mph5.0 kmh 30.18 in1022.0 mb 0.00 in0.0 mm 0.00 in0.0 mm 0.02 in0.5 mm
12:50 AM 34.5°F1.4°C 28.4°F-2.0°C 78% 0.7 mph W1.1 kmh W 3.1 mph5.0 kmh 30.19 in1022.4 mb 0.00 in0.0 mm 0.00 in0.0 mm 0.02 in0.5 mm
12:55 AM 34.3°F1.3°C 28.2°F-2.1°C 78% 2.2 mph ENE3.5 kmh ENE 4.5 mph7.2 kmh 30.18 in1022.0 mb 0.00 in0.0 mm 0.00 in0.0 mm 0.02 in0.5 mm
01:00 AM 34.0°F1.1°C 27.9°F-2.3°C 78% Calm Calm 4.5 mph7.2 kmh 30.19 in1022.4 mb 0.00 in0.0 mm 0.00 in0.0 mm 0.00 in0.0 mm
01:05 AM 33.8°F1.0°C 27.7°F-2.4°C 78% 0.7 mph N1.1 kmh N 3.1 mph5.0 kmh 30.19 in1022.4 mb 0.00 in0.0 mm 0.00 in0.0 mm 0.00 in0.0 mm
01:10 AM 33.4°F0.8°C 27.6°F-2.4°C 79% Calm Calm 3.1 mph5.0 kmh 30.19 in1022.4 mb 0.00 in0.0 mm 0.00 in0.0 mm 0.00 in0.0 mm
01:15 AM 33.1°F0.6°C 27.3°F-2.6°C 79% Calm Calm 2.2 mph3.5 kmh 30.19 in1022.4 mb 0.00 in0.0 mm 0.00 in0.0 mm 0.00 in0.0 mm
01:20 AM 32.7°F0.4°C 26.9°F-2.8°C 79% 0.7 mph E1.1 kmh E 2.2 mph3.5 kmh 30.19 in1022.4 mb 0.00 in0.0 mm 0.00 in0.0 mm 0.00 in0.0 mm
01:25 AM 32.5°F0.3°C 27.1°F-2.7°C 80% Calm Calm 2.2 mph3.5 kmh 30.20 in1022.7 mb 0.00 in0.0 mm 0.00 in0.0 mm 0.00 in0.0 mm
01:30 AM 32.2°F0.1°C 26.7°F-2.9°C 80% Calm Calm 2.2 mph3.5 kmh 30.20 in1022.7 mb 0.00 in0.0 mm 0.00 in0.0 mm 0.00 in0.0 mm
01:35 AM 32.0°F0.0°C 26.6°F-3.0°C 80% Calm Calm 2.2 mph3.5 kmh 30.20 in1022.7 mb 0.00 in0.0 mm 0.00 in0.0 mm 0.00 in0.0 mm
01:40 AM 32.0°F0.0°C 26.9°F-2.8°C 81% 0.7 mph WSW1.1 kmh WSW 2.2 mph3.5 kmh 30.20 in1022.7 mb 0.00 in0.0 mm 0.00 in0.0 mm 0.00 in0.0 mm
01:45 AM 31.8°F-0.1°C 27.3°F-2.6°C 83% Calm Calm 4.5 mph7.2 kmh 30.20 in1022.7 mb 0.00 in0.0 mm 0.00 in0.0 mm 0.00 in0.0 mm
01:50 AM 31.6°F-0.2°C 27.1°F-2.7°C 83% 1.6 mph NW2.6 kmh NW 4.5 mph7.2 kmh 30.21 in1023.0 mb 0.00 in0.0 mm 0.00 in0.0 mm 0.00 in0.0 mm
01:55 AM 31.5°F-0.3°C 26.9°F-2.8°C 83% 0.7 mph N1.1 kmh N 3.8 mph6.1 kmh 30.21 in1023.0 mb 0.00 in0.0 mm 0.00 in0.0 mm 0.00 in0.0 mm
02:00 AM 31.1°F-0.5°C 26.9°F-2.8°C 84% 0.7 mph N1.1 kmh N 3.8 mph6.1 kmh 30.21 in1023.0 mb 0.00 in0.0 mm 0.00 in0.0 mm 0.00 in0.0 mm
02:05 AM 31.1°F-0.5°C 26.9°F-2.8°C 84% 0.7 mph NW1.1 kmh NW 2.2 mph3.5 kmh 30.22 in1023.4 mb 0.00 in0.0 mm 0.00 in0.0 mm 0.00 in0.0 mm
02:10 AM 31.3°F-0.4°C 27.0°F-2.8°C 84% Calm Calm 1.6 mph2.6 kmh 30.21 in1023.0 mb 0.00 in0.0 mm 0.00 in0.0 mm 0.00 in0.0 mm
02:15 AM 31.6°F-0.2°C 27.4°F-2.6°C 84% 0.7 mph NNW1.1 kmh NNW 1.6 mph2.6 kmh 30.22 in1023.4 mb 0.00 in0.0 mm 0.00 in0.0 mm 0.00 in0.0 mm
02:20 AM 31.6°F-0.2°C 27.7°F-2.4°C 85% Calm Calm 1.6 mph2.6 kmh 30.22 in1023.4 mb 0.00 in0.0 mm 0.00 in0.0 mm 0.00 in0.0 mm
02:25 AM 31.8°F-0.1°C 27.8°F-2.3°C 85% 1.6 mph SE2.6 kmh SE 2.2 mph3.5 kmh 30.22 in1023.4 mb 0.00 in0.0 mm 0.00 in0.0 mm 0.00 in0.0 mm
02:30 AM 31.8°F-0.1°C 27.8°F-2.3°C 85% Calm Calm 2.2 mph3.5 kmh 30.22 in1023.4 mb 0.00 in0.0 mm 0.00 in0.0 mm 0.00 in0.0 mm
02:35 AM 31.8°F-0.1°C 27.8°F-2.3°C 85% 0.7 mph S1.1 kmh S 2.2 mph3.5 kmh 30.22 in1023.4 mb 0.00 in0.0 mm 0.00 in0.0 mm 0.00 in0.0 mm
02:40 AM 32.0°F0.0°C 27.7°F-2.4°C 84% 3.8 mph ESE6.1 kmh ESE 5.4 mph8.7 kmh 30.22 in1023.4 mb 0.00 in0.0 mm 0.00 in0.0 mm 0.00 in0.0 mm
02:45 AM 32.0°F0.0°C 27.7°F-2.4°C 84% 2.2 mph E3.5 kmh E 5.4 mph8.7 kmh 30.21 in1023.0 mb 0.00 in0.0 mm 0.00 in0.0 mm 0.00 in0.0 mm
02:50 AM 31.6°F-0.2°C 27.7°F-2.4°C 85% 2.2 mph E3.5 kmh E 5.4 mph8.7 kmh 30.22 in1023.4 mb 0.00 in0.0 mm 0.00 in0.0 mm 0.00 in0.0 mm
02:55 AM 31.6°F-0.2°C 27.7°F-2.4°C 85% 0.7 mph SE1.1 kmh SE 3.8 mph6.1 kmh 30.21 in1023.0 mb 0.00 in0.0 mm 0.00 in0.0 mm 0.00 in0.0 mm
03:00 AM 31.5°F-0.3°C 27.5°F-2.5°C 85% Calm Calm 3.1 mph5.0 kmh 30.21 in1023.0 mb 0.00 in0.0 mm 0.00 in0.0 mm 0.00 in0.0 mm
03:05 AM 31.5°F-0.3°C 27.5°F-2.5°C 85% Calm Calm 2.2 mph3.5 kmh 30.21 in1023.0 mb 0.00 in0.0 mm 0.00 in0.0 mm 0.00 in0.0 mm
03:10 AM 31.1°F-0.5°C 27.1°F-2.7°C 85% Calm Calm 2.2 mph3.5 kmh 30.21 in1023.0 mb 0.00 in0.0 mm 0.00 in0.0 mm 0.00 in0.0 mm
03:15 AM 30.7°F-0.7°C 26.8°F-2.9°C 85% Calm Calm 2.2 mph3.5 kmh 30.21 in1023.0 mb 0.00 in0.0 mm 0.00 in0.0 mm 0.00 in0.0 mm
03:20 AM 30.4°F-0.9°C 26.4°F-3.1°C 85% 1.6 mph NNE2.6 kmh NNE 2.2 mph3.5 kmh 30.21 in1023.0 mb 0.00 in0.0 mm 0.00 in0.0 mm 0.00 in0.0 mm
03:25 AM 30.2°F-1.0°C 26.3°F-3.2°C 85% 2.2 mph NE3.5 kmh NE 5.4 mph8.7 kmh 30.21 in1023.0 mb 0.00 in0.0 mm 0.00 in0.0 mm 0.00 in0.0 mm
03:30 AM 30.2°F-1.0°C 26.3°F-3.2°C 85% 1.6 mph NE2.6 kmh NE 5.4 mph8.7 kmh 30.21 in1023.0 mb 0.00 in0.0 mm 0.00 in0.0 mm 0.00 in0.0 mm
03:35 AM 30.2°F-1.0°C 26.3°F-3.2°C 85% 1.6 mph NNE2.6 kmh NNE 3.1 mph5.0 kmh 30.22 in1023.4 mb 0.00 in0.0 mm 0.00 in0.0 mm 0.00 in0.0 mm
03:40 AM 30.0°F-1.1°C 26.4°F-3.1°C 86% 3.1 mph NE5.0 kmh NE 3.8 mph6.1 kmh 30.21 in1023.0 mb 0.00 in0.0 mm 0.00 in0.0 mm 0.00 in0.0 mm
03:50 AM 30.2°F-1.0°C 26.3°F-3.2°C 85% 1.6 mph NE2.6 kmh NE 4.5 mph7.2 kmh 30.22 in1023.4 mb 0.00 in0.0 mm 0.00 in0.0 mm 0.00 in0.0 mm
03:55 AM 30.0°F-1.1°C 26.4°F-3.1°C 86% 2.2 mph NE3.5 kmh NE 4.5 mph7.2 kmh 30.22 in1023.4 mb 0.00 in0.0 mm 0.00 in0.0 mm 0.00 in0.0 mm
04:00 AM 30.0°F-1.1°C 26.6°F-3.0°C 87% 2.2 mph E3.5 kmh E 3.8 mph6.1 kmh 30.22 in1023.4 mb 0.00 in0.0 mm 0.00 in0.0 mm 0.00 in0.0 mm
04:05 AM 30.0°F-1.1°C 26.6°F-3.0°C 87% 1.6 mph NE2.6 kmh NE 3.8 mph6.1 kmh 30.22 in1023.4 mb 0.00 in0.0 mm 0.00 in0.0 mm 0.00 in0.0 mm
04:10 AM 29.8°F-1.2°C 26.5°F-3.1°C 87% Calm Calm 2.2 mph3.5 kmh 30.22 in1023.4 mb 0.00 in0.0 mm 0.00 in0.0 mm 0.00 in0.0 mm
04:15 AM 29.8°F-1.2°C 26.5°F-3.1°C 87% 1.6 mph E2.6 kmh E 3.1 mph5.0 kmh 30.22 in1023.4 mb 0.00 in0.0 mm 0.00 in0.0 mm 0.00 in0.0 mm
04:20 AM 29.8°F-1.2°C 26.5°F-3.1°C 87% 0.7 mph E1.1 kmh E 3.1 mph5.0 kmh 30.22 in1023.4 mb 0.00 in0.0 mm 0.00 in0.0 mm 0.00 in0.0 mm
04:25 AM 29.7°F-1.3°C 26.3°F-3.2°C 87% 2.2 mph NNE3.5 kmh NNE 3.8 mph6.1 kmh 30.22 in1023.4 mb 0.00 in0.0 mm 0.00 in0.0 mm 0.00 in0.0 mm
04:30 AM 29.5°F-1.4°C 26.1°F-3.3°C 87% Calm Calm 3.8 mph6.1 kmh 30.22 in1023.4 mb 0.00 in0.0 mm 0.00 in0.0 mm 0.00 in0.0 mm
04:35 AM 29.3°F-1.5°C 25.9°F-3.4°C 87% 0.7 mph NE1.1 kmh NE 3.1 mph5.0 kmh 30.22 in1023.4 mb 0.00 in0.0 mm 0.00 in0.0 mm 0.00 in0.0 mm
04:40 AM 29.5°F-1.4°C 26.1°F-3.3°C 87% 2.2 mph E3.5 kmh E 3.8 mph6.1 kmh 30.23 in1023.7 mb 0.00 in0.0 mm 0.00 in0.0 mm 0.00 in0.0 mm
04:45 AM 29.7°F-1.3°C 26.3°F-3.2°C 87% 3.8 mph E6.1 kmh E 4.5 mph7.2 kmh 30.23 in1023.7 mb 0.00 in0.0 mm 0.00 in0.0 mm 0.00 in0.0 mm
04:50 AM 29.5°F-1.4°C 26.1°F-3.3°C 87% 0.7 mph E1.1 kmh E 4.5 mph7.2 kmh 30.23 in1023.7 mb 0.00 in0.0 mm 0.00 in0.0 mm 0.00 in0.0 mm
04:55 AM 29.5°F-1.4°C 26.1°F-3.3°C 87% 0.7 mph E1.1 kmh E 4.5 mph7.2 kmh 30.23 in1023.7 mb 0.00 in0.0 mm 0.00 in0.0 mm 0.00 in0.0 mm
05:00 AM 29.5°F-1.4°C 26.1°F-3.3°C 87% 2.2 mph ESE3.5 kmh ESE 3.8 mph6.1 kmh 30.23 in1023.7 mb 0.00 in0.0 mm 0.00 in0.0 mm 0.00 in0.0 mm
05:05 AM 29.5°F-1.4°C 26.1°F-3.3°C 87% 0.7 mph ESE1.1 kmh ESE 3.1 mph5.0 kmh 30.23 in1023.7 mb 0.00 in0.0 mm 0.00 in0.0 mm 0.00 in0.0 mm
05:10 AM 29.3°F-1.5°C 25.9°F-3.4°C 87% 0.7 mph E1.1 kmh E 3.1 mph5.0 kmh 30.23 in1023.7 mb 0.00 in0.0 mm 0.00 in0.0 mm 0.00 in0.0 mm
05:15 AM 29.3°F-1.5°C 25.9°F-3.4°C 87% Calm Calm 1.6 mph2.6 kmh 30.23 in1023.7 mb 0.00 in0.0 mm 0.00 in0.0 mm 0.00 in0.0 mm
05:20 AM 28.9°F-1.7°C 25.6°F-3.6°C 87% 1.6 mph E2.6 kmh E 3.1 mph5.0 kmh 30.24 in1024.0 mb 0.00 in0.0 mm 0.00 in0.0 mm 0.00 in0.0 mm
05:25 AM 28.8°F-1.8°C 25.4°F-3.7°C 87% 1.6 mph ESE2.6 kmh ESE 3.1 mph5.0 kmh 30.24 in1024.0 mb 0.00 in0.0 mm 0.00 in0.0 mm 0.00 in0.0 mm
05:30 AM 28.8°F-1.8°C 25.4°F-3.7°C 87% Calm Calm 3.1 mph5.0 kmh 30.24 in1024.0 mb 0.00 in0.0 mm 0.00 in0.0 mm 0.00 in0.0 mm
05:35 AM 28.6°F-1.9°C 25.2°F-3.8°C 87% Calm Calm 3.1 mph5.0 kmh 30.24 in1024.0 mb 0.00 in0.0 mm 0.00 in0.0 mm 0.00 in0.0 mm
05:40 AM 28.4°F-2.0°C 25.0°F-3.9°C 87% Calm Calm 3.1 mph5.0 kmh 30.25 in1024.4 mb 0.00 in0.0 mm 0.00 in0.0 mm 0.00 in0.0 mm
05:45 AM 28.4°F-2.0°C 25.0°F-3.9°C 87% Calm Calm -- 30.25 in1024.4 mb 0.00 in0.0 mm 0.00 in0.0 mm 0.00 in0.0 mm
05:50 AM 28.4°F-2.0°C 25.0°F-3.9°C 87% 0.7 mph SE1.1 kmh SE 1.6 mph2.6 kmh 30.25 in1024.4 mb 0.00 in0.0 mm 0.00 in0.0 mm 0.00 in0.0 mm
05:55 AM 28.2°F-2.1°C 23.7°F-4.6°C 83% Calm Calm 2.2 mph3.5 kmh 30.26 in1024.7 mb 0.00 in0.0 mm 0.00 in0.0 mm 0.00 in0.0 mm
06:00 AM 28.2°F-2.1°C 23.7°F-4.6°C 83% Calm Calm 2.2 mph3.5 kmh 30.26 in1024.7 mb 0.00 in0.0 mm 0.00 in0.0 mm 0.00 in0.0 mm
06:05 AM 28.0°F-2.2°C 23.6°F-4.7°C 83% Calm Calm 1.6 mph2.6 kmh 30.26 in1024.7 mb 0.00 in0.0 mm 0.00 in0.0 mm 0.00 in0.0 mm
06:10 AM 28.0°F-2.2°C 23.6°F-4.7°C 83% Calm Calm 0.7 mph1.1 kmh 30.27 in1025.1 mb 0.00 in0.0 mm 0.00 in0.0 mm 0.00 in0.0 mm
06:15 AM 27.9°F-2.3°C 23.4°F-4.8°C 83% Calm Calm -- 30.27 in1025.1 mb 0.00 in0.0 mm 0.00 in0.0 mm 0.00 in0.0 mm
06:20 AM 27.7°F-2.4°C 23.2°F-4.9°C 83% Calm Calm -- 30.27 in1025.1 mb 0.00 in0.0 mm 0.00 in0.0 mm 0.00 in0.0 mm
06:25 AM 27.7°F-2.4°C 23.2°F-4.9°C 83% 1.6 mph SE2.6 kmh SE 2.2 mph3.5 kmh 30.27 in1025.1 mb 0.00 in0.0 mm 0.00 in0.0 mm 0.00 in0.0 mm
06:30 AM 28.0°F-2.2°C 23.6°F-4.7°C 83% 2.2 mph ESE3.5 kmh ESE 3.1 mph5.0 kmh 30.26 in1024.7 mb 0.00 in0.0 mm 0.00 in0.0 mm 0.00 in0.0 mm
06:35 AM 28.2°F-2.1°C 24.0°F-4.4°C 84% Calm Calm 3.1 mph5.0 kmh 30.27 in1025.1 mb 0.00 in0.0 mm 0.00 in0.0 mm 0.00 in0.0 mm
06:40 AM 28.0°F-2.2°C 23.9°F-4.5°C 84% 0.7 mph E1.1 kmh E 3.1 mph5.0 kmh 30.27 in1025.1 mb 0.00 in0.0 mm 0.00 in0.0 mm 0.00 in0.0 mm
06:45 AM 28.0°F-2.2°C 23.9°F-4.5°C 84% 0.7 mph ENE1.1 kmh ENE 3.1 mph5.0 kmh 30.27 in1025.1 mb 0.00 in0.0 mm 0.00 in0.0 mm 0.00 in0.0 mm
06:50 AM 27.9°F-2.3°C 23.7°F-4.6°C 84% 0.7 mph N1.1 kmh N 3.1 mph5.0 kmh 30.27 in1025.1 mb 0.00 in0.0 mm 0.00 in0.0 mm 0.00 in0.0 mm
06:55 AM 27.7°F-2.4°C 23.5°F-4.7°C 84% 1.6 mph N2.6 kmh N 3.1 mph5.0 kmh 30.27 in1025.1 mb 0.00 in0.0 mm 0.00 in0.0 mm 0.00 in0.0 mm
07:00 AM 27.5°F-2.5°C 23.3°F-4.8°C 84% 2.2 mph NE3.5 kmh NE 3.8 mph6.1 kmh 30.27 in1025.1 mb 0.00 in0.0 mm 0.00 in0.0 mm 0.00 in0.0 mm
07:05 AM 27.7°F-2.4°C 23.5°F-4.7°C 84% 1.6 mph NE2.6 kmh NE 3.8 mph6.1 kmh 30.27 in1025.1 mb 0.00 in0.0 mm 0.00 in0.0 mm 0.00 in0.0 mm
07:10 AM 27.7°F-2.4°C 23.5°F-4.7°C 84% 2.2 mph NE3.5 kmh NE 4.5 mph7.2 kmh 30.27 in1025.1 mb 0.00 in0.0 mm 0.00 in0.0 mm 0.00 in0.0 mm
07:15 AM 27.7°F-2.4°C 23.5°F-4.7°C 84% 2.2 mph NE3.5 kmh NE 4.5 mph7.2 kmh 30.28 in1025.4 mb 0.00 in0.0 mm 0.00 in0.0 mm 0.00 in0.0 mm
07:20 AM 27.9°F-2.3°C 23.7°F-4.6°C 84% 2.2 mph ENE3.5 kmh ENE 4.5 mph7.2 kmh 30.28 in1025.4 mb 0.00 in0.0 mm 0.00 in0.0 mm 0.00 in0.0 mm
07:25 AM 27.9°F-2.3°C 23.7°F-4.6°C 84% 1.6 mph ENE2.6 kmh ENE 4.5 mph7.2 kmh 30.28 in1025.4 mb 0.00 in0.0 mm 0.00 in0.0 mm 0.00 in0.0 mm
07:30 AM 28.0°F-2.2°C 23.9°F-4.5°C 84% 0.7 mph NE1.1 kmh NE 3.1 mph5.0 kmh 30.28 in1025.4 mb 0.00 in0.0 mm 0.00 in0.0 mm 0.00 in0.0 mm
07:35 AM 28.0°F-2.2°C 23.9°F-4.5°C 84% 0.7 mph NE1.1 kmh NE 3.1 mph5.0 kmh 30.28 in1025.4 mb 0.00 in0.0 mm 0.00 in0.0 mm 0.00 in0.0 mm
07:40 AM 28.0°F-2.2°C 23.9°F-4.5°C 84% 1.6 mph E2.6 kmh E 2.2 mph3.5 kmh 30.28 in1025.4 mb 0.00 in0.0 mm 0.00 in0.0 mm 0.00 in0.0 mm
07:45 AM 28.0°F-2.2°C 23.9°F-4.5°C 84% 3.1 mph E5.0 kmh E 4.5 mph7.2 kmh 30.28 in1025.4 mb 0.00 in0.0 mm 0.00 in0.0 mm 0.00 in0.0 mm
07:50 AM 27.9°F-2.3°C 23.7°F-4.6°C 84% 2.2 mph E3.5 kmh E 4.5 mph7.2 kmh 30.28 in1025.4 mb 0.00 in0.0 mm 0.00 in0.0 mm 0.00 in0.0 mm
07:55 AM 27.7°F-2.4°C 23.5°F-4.7°C 84% 0.7 mph E1.1 kmh E 4.5 mph7.2 kmh 30.28 in1025.4 mb 0.00 in0.0 mm 0.00 in0.0 mm 0.00 in0.0 mm
08:00 AM 27.5°F-2.5°C 23.3°F-4.8°C 84% Calm Calm 3.1 mph5.0 kmh 30.28 in1025.4 mb 0.00 in0.0 mm 0.00 in0.0 mm 0.00 in0.0 mm
08:05 AM 27.5°F-2.5°C 23.3°F-4.8°C 84% 1.6 mph NE2.6 kmh NE 2.2 mph3.5 kmh 30.28 in1025.4 mb 0.00 in0.0 mm 0.00 in0.0 mm 0.00 in0.0 mm
08:10 AM 27.5°F-2.5°C 23.3°F-4.8°C 84% Calm Calm 2.2 mph3.5 kmh 30.28 in1025.4 mb 0.00 in0.0 mm 0.00 in0.0 mm 0.00 in0.0 mm
08:15 AM 27.5°F-2.5°C 23.3°F-4.8°C 84% 1.6 mph NE2.6 kmh NE 3.1 mph5.0 kmh 30.28 in1025.4 mb 0.00 in0.0 mm 0.00 in0.0 mm 0.00 in0.0 mm
08:20 AM 27.5°F-2.5°C 23.3°F-4.8°C 84% 0.7 mph NE1.1 kmh NE 3.1 mph5.0 kmh 30.29 in1025.7 mb 0.00 in0.0 mm 0.00 in0.0 mm 0.00 in0.0 mm
08:25 AM 27.5°F-2.5°C 23.3°F-4.8°C 84% Calm Calm 2.2 mph3.5 kmh 30.30 in1026.1 mb 0.00 in0.0 mm 0.00 in0.0 mm 0.00 in0.0 mm
08:30 AM 27.5°F-2.5°C 23.3°F-4.8°C 84% Calm Calm 2.2 mph3.5 kmh 30.29 in1025.7 mb 0.00 in0.0 mm 0.00 in0.0 mm 0.00 in0.0 mm
08:35 AM 27.3°F-2.6°C 23.2°F-4.9°C 84% Calm Calm 1.6 mph2.6 kmh 30.30 in1026.1 mb 0.00 in0.0 mm 0.00 in0.0 mm 0.00 in0.0 mm
08:40 AM 27.5°F-2.5°C 23.3°F-4.8°C 84% Calm Calm 1.6 mph2.6 kmh 30.30 in1026.1 mb 0.00 in0.0 mm 0.00 in0.0 mm 0.00 in0.0 mm
08:45 AM 27.5°F-2.5°C 23.3°F-4.8°C 84% 0.7 mph WNW1.1 kmh WNW 2.2 mph3.5 kmh 30.30 in1026.1 mb 0.00 in0.0 mm 0.00 in0.0 mm 0.00 in0.0 mm
08:50 AM 27.3°F-2.6°C 23.2°F-4.9°C 84% Calm Calm 2.2 mph3.5 kmh 30.30 in1026.1 mb 0.00 in0.0 mm 0.00 in0.0 mm 0.00 in0.0 mm
08:55 AM 27.3°F-2.6°C 23.2°F-4.9°C 84% Calm Calm 2.2 mph3.5 kmh 30.30 in1026.1 mb 0.00 in0.0 mm 0.00 in0.0 mm 0.00 in0.0 mm
09:00 AM 27.5°F-2.5°C 23.3°F-4.8°C 84% 0.7 mph W1.1 kmh W 2.2 mph3.5 kmh 30.31 in1026.4 mb 0.00 in0.0 mm 0.00 in0.0 mm 0.00 in0.0 mm
09:05 AM 27.7°F-2.4°C 23.5°F-4.7°C 84% Calm Calm 2.2 mph3.5 kmh 30.31 in1026.4 mb 0.00 in0.0 mm 0.00 in0.0 mm 0.00 in0.0 mm
09:10 AM 27.9°F-2.3°C 23.7°F-4.6°C 84% Calm Calm 2.2 mph3.5 kmh 30.31 in1026.4 mb 0.00 in0.0 mm 0.00 in0.0 mm 0.00 in0.0 mm
09:15 AM 28.0°F-2.2°C 23.9°F-4.5°C 84% 2.2 mph ENE3.5 kmh ENE 3.1 mph5.0 kmh 30.32 in1026.8 mb 0.00 in0.0 mm 0.00 in0.0 mm 0.00 in0.0 mm
09:20 AM 28.4°F-2.0°C 25.3°F-3.7°C 88% 0.7 mph E1.1 kmh E 3.1 mph5.0 kmh 30.32 in1026.8 mb 0.00 in0.0 mm 0.00 in0.0 mm 0.00 in0.0 mm
09:25 AM 28.4°F-2.0°C 25.6°F-3.6°C 89% 0.7 mph E1.1 kmh E 3.1 mph5.0 kmh 30.32 in1026.8 mb 0.00 in0.0 mm 0.00 in0.0 mm 0.00 in0.0 mm
09:30 AM 28.6°F-1.9°C 25.8°F-3.4°C 89% 1.6 mph E2.6 kmh E 2.2 mph3.5 kmh 30.32 in1026.8 mb 0.00 in0.0 mm 0.00 in0.0 mm 0.00 in0.0 mm
09:35 AM 29.1°F-1.6°C 26.3°F-3.2°C 89% 0.7 mph E1.1 kmh E 2.2 mph3.5 kmh 30.32 in1026.8 mb 0.00 in0.0 mm 0.00 in0.0 mm 0.00 in0.0 mm
09:40 AM 29.8°F-1.2°C 27.0°F-2.8°C 89% 0.7 mph E1.1 kmh E 2.2 mph3.5 kmh 30.32 in1026.8 mb 0.00 in0.0 mm 0.00 in0.0 mm 0.00 in0.0 mm
09:45 AM 30.4°F-0.9°C 27.3°F-2.6°C 88% Calm Calm 2.2 mph3.5 kmh 30.33 in1027.1 mb 0.00 in0.0 mm 0.00 in0.0 mm 0.00 in0.0 mm
09:50 AM 30.9°F-0.6°C 28.1°F-2.2°C 89% 0.7 mph SE1.1 kmh SE 2.2 mph3.5 kmh 30.32 in1026.8 mb 0.00 in0.0 mm 0.00 in0.0 mm 0.00 in0.0 mm
09:55 AM 31.3°F-0.4°C 28.4°F-2.0°C 89% 0.7 mph E1.1 kmh E 1.6 mph2.6 kmh 30.32 in1026.8 mb 0.00 in0.0 mm 0.00 in0.0 mm 0.00 in0.0 mm
10:00 AM 31.8°F-0.1°C 29.0°F-1.7°C 89% Calm Calm 1.6 mph2.6 kmh 30.32 in1026.8 mb 0.00 in0.0 mm 0.00 in0.0 mm 0.00 in0.0 mm
10:05 AM 32.0°F0.0°C 28.6°F-1.9°C 87% 0.7 mph NNE1.1 kmh NNE 1.6 mph2.6 kmh 30.32 in1026.8 mb 0.00 in0.0 mm 0.00 in0.0 mm 0.00 in0.0 mm
10:10 AM 32.4°F0.2°C 28.9°F-1.7°C 87% Calm Calm 1.6 mph2.6 kmh 30.33 in1027.1 mb 0.00 in0.0 mm 0.00 in0.0 mm 0.00 in0.0 mm
10:15 AM 32.9°F0.5°C 29.5°F-1.4°C 87% 0.7 mph N1.1 kmh N 1.6 mph2.6 kmh 30.33 in1027.1 mb 0.00 in0.0 mm 0.00 in0.0 mm 0.00 in0.0 mm
10:20 AM 33.3°F0.7°C 29.8°F-1.2°C 87% Calm Calm 1.6 mph2.6 kmh 30.33 in1027.1 mb 0.00 in0.0 mm 0.00 in0.0 mm 0.00 in0.0 mm
10:25 AM 33.8°F1.0°C 30.1°F-1.1°C 86% 0.7 mph NNW1.1 kmh NNW 1.6 mph2.6 kmh 30.33 in1027.1 mb 0.00 in0.0 mm 0.00 in0.0 mm 0.00 in0.0 mm
10:30 AM 34.3°F1.3°C 30.3°F-0.9°C 85% Calm Calm 1.6 mph2.6 kmh 30.33 in1027.1 mb 0.00 in0.0 mm 0.00 in0.0 mm 0.00 in0.0 mm
10:35 AM 35.2°F1.8°C 31.2°F-0.4°C 85% 1.6 mph ENE2.6 kmh ENE 3.1 mph5.0 kmh 30.33 in1027.1 mb 0.00 in0.0 mm 0.00 in0.0 mm 0.00 in0.0 mm
10:40 AM 35.4°F1.9°C 31.1°F-0.5°C 84% 0.7 mph E1.1 kmh E 4.5 mph7.2 kmh 30.33 in1027.1 mb 0.00 in0.0 mm 0.00 in0.0 mm 0.00 in0.0 mm
10:45 AM 36.0°F2.2°C 31.0°F-0.6°C 82% 1.6 mph SE2.6 kmh SE 4.5 mph7.2 kmh 30.33 in1027.1 mb 0.00 in0.0 mm 0.00 in0.0 mm 0.00 in0.0 mm
10:50 AM 36.3°F2.4°C 31.1°F-0.5°C 81% 1.6 mph ESE2.6 kmh ESE 4.5 mph7.2 kmh 30.33 in1027.1 mb 0.00 in0.0 mm 0.00 in0.0 mm 0.00 in0.0 mm
10:55 AM 36.9°F2.7°C 31.3°F-0.4°C 80% 2.2 mph ESE3.5 kmh ESE 4.5 mph7.2 kmh 30.34 in1027.4 mb 0.00 in0.0 mm 0.00 in0.0 mm 0.00 in0.0 mm
11:00 AM 37.4°F3.0°C 32.7°F0.4°C 83% 0.7 mph SE1.1 kmh SE 3.8 mph6.1 kmh 30.33 in1027.1 mb 0.00 in0.0 mm 0.00 in0.0 mm 0.00 in0.0 mm
11:05 AM 38.3°F3.5°C 33.3°F0.7°C 82% 2.2 mph SE3.5 kmh SE 3.8 mph6.1 kmh 30.33 in1027.1 mb 0.00 in0.0 mm 0.00 in0.0 mm 0.00 in0.0 mm
11:10 AM 38.5°F3.6°C 32.9°F0.5°C 80% 2.2 mph E3.5 kmh E 3.8 mph6.1 kmh 30.34 in1027.4 mb 0.00 in0.0 mm 0.00 in0.0 mm 0.00 in0.0 mm
11:15 AM 38.5°F3.6°C 32.2°F0.1°C 78% 2.2 mph E3.5 kmh E 3.8 mph6.1 kmh 30.35 in1027.8 mb 0.00 in0.0 mm 0.00 in0.0 mm 0.00 in0.0 mm
11:20 AM 38.7°F3.7°C 32.4°F0.2°C 78% 1.6 mph E2.6 kmh E 5.4 mph8.7 kmh 30.35 in1027.8 mb 0.00 in0.0 mm 0.00 in0.0 mm 0.00 in0.0 mm
11:25 AM 38.8°F3.8°C 32.3°F0.2°C 77% 0.7 mph ESE1.1 kmh ESE 5.4 mph8.7 kmh 30.35 in1027.8 mb 0.00 in0.0 mm 0.00 in0.0 mm 0.00 in0.0 mm
11:30 AM 39.2°F4.0°C 32.0°F0.0°C 75% 1.6 mph SE2.6 kmh SE 4.5 mph7.2 kmh 30.35 in1027.8 mb 0.00 in0.0 mm 0.00 in0.0 mm 0.00 in0.0 mm
11:35 AM 39.4°F4.1°C 32.1°F0.1°C 75% 1.6 mph E2.6 kmh E 4.5 mph7.2 kmh 30.35 in1027.8 mb 0.00 in0.0 mm 0.00 in0.0 mm 0.00 in0.0 mm
11:40 AM 40.1°F4.5°C 32.5°F0.3°C 74% 0.7 mph NE1.1 kmh NE 4.5 mph7.2 kmh 30.36 in1028.1 mb 0.00 in0.0 mm 0.00 in0.0 mm 0.00 in0.0 mm
11:45 AM 39.9°F4.4°C 32.3°F0.2°C 74% 0.7 mph N1.1 kmh N 3.8 mph6.1 kmh 30.36 in1028.1 mb 0.00 in0.0 mm 0.00 in0.0 mm 0.00 in0.0 mm
11:50 AM 39.9°F4.4°C 32.3°F0.2°C 74% 1.6 mph NNE2.6 kmh NNE 3.8 mph6.1 kmh 30.36 in1028.1 mb 0.00 in0.0 mm 0.00 in0.0 mm 0.00 in0.0 mm
11:55 AM 40.1°F4.5°C 32.5°F0.3°C 74% 2.2 mph NNW3.5 kmh NNW 3.1 mph5.0 kmh 30.36 in1028.1 mb 0.00 in0.0 mm 0.00 in0.0 mm 0.00 in0.0 mm
12:00 PM 40.3°F4.6°C 32.3°F0.2°C 73% 1.6 mph NW2.6 kmh NW 3.1 mph5.0 kmh 30.36 in1028.1 mb 0.00 in0.0 mm 0.00 in0.0 mm 0.00 in0.0 mm
12:05 PM 40.8°F4.9°C 32.8°F0.4°C 73% 1.6 mph NNW2.6 kmh NNW 3.8 mph6.1 kmh 30.36 in1028.1 mb 0.00 in0.0 mm 0.00 in0.0 mm 0.00 in0.0 mm
12:10 PM 41.2°F5.1°C 32.2°F0.1°C 70% Calm Calm 3.8 mph6.1 kmh 30.36 in1028.1 mb 0.00 in0.0 mm 0.00 in0.0 mm 0.00 in0.0 mm
12:15 PM 41.4°F5.2°C 32.0°F0.0°C 69% 2.2 mph NNW3.5 kmh NNW 3.1 mph5.0 kmh 30.36 in1028.1 mb 0.00 in0.0 mm 0.00 in0.0 mm 0.00 in0.0 mm
12:20 PM 41.7°F5.4°C 32.3°F0.2°C 69% 1.6 mph NW2.6 kmh NW 3.1 mph5.0 kmh 30.36 in1028.1 mb 0.00 in0.0 mm 0.00 in0.0 mm 0.00 in0.0 mm
12:25 PM 41.7°F5.4°C 32.0°F0.0°C 68% 0.7 mph W1.1 kmh W 3.8 mph6.1 kmh 30.36 in1028.1 mb 0.00 in0.0 mm 0.00 in0.0 mm 0.00 in0.0 mm
12:30 PM 42.3°F5.7°C 32.5°F0.3°C 68% 3.1 mph W5.0 kmh W 4.5 mph7.2 kmh 30.36 in1028.1 mb 0.00 in0.0 mm 0.00 in0.0 mm 0.00 in0.0 mm
12:35 PM 42.6°F5.9°C 32.8°F0.4°C 68% 1.6 mph NW2.6 kmh NW 4.5 mph7.2 kmh 30.36 in1028.1 mb 0.00 in0.0 mm 0.00 in0.0 mm 0.00 in0.0 mm
12:40 PM 42.3°F5.7°C 31.7°F-0.2°C 66% 1.6 mph WNW2.6 kmh WNW 3.8 mph6.1 kmh 30.36 in1028.1 mb 0.00 in0.0 mm 0.00 in0.0 mm 0.00 in0.0 mm
12:45 PM 42.1°F5.6°C 31.2°F-0.4°C 65% Calm Calm 3.8 mph6.1 kmh 30.36 in1028.1 mb 0.00 in0.0 mm 0.00 in0.0 mm 0.00 in0.0 mm
12:50 PM 42.3°F5.7°C 31.7°F-0.2°C 66% 1.6 mph NW2.6 kmh NW 4.5 mph7.2 kmh 30.36 in1028.1 mb 0.00 in0.0 mm 0.00 in0.0 mm 0.00 in0.0 mm
12:55 PM 42.4°F5.8°C 31.5°F-0.3°C 65% 0.7 mph NW1.1 kmh NW 4.5 mph7.2 kmh 30.35 in1027.8 mb 0.00 in0.0 mm 0.00 in0.0 mm 0.00 in0.0 mm
01:00 PM 42.4°F5.8°C 31.1°F-0.5°C 64% 0.7 mph W1.1 kmh W 4.5 mph7.2 kmh 30.35 in1027.8 mb 0.00 in0.0 mm 0.00 in0.0 mm 0.00 in0.0 mm
01:05 PM 42.8°F6.0°C 31.1°F-0.5°C 63% 1.6 mph WSW2.6 kmh WSW 3.1 mph5.0 kmh 30.35 in1027.8 mb 0.00 in0.0 mm 0.00 in0.0 mm 0.00 in0.0 mm
01:10 PM 43.2°F6.2°C 31.0°F-0.6°C 62% 1.6 mph SW2.6 kmh SW 3.1 mph5.0 kmh 30.35 in1027.8 mb 0.00 in0.0 mm 0.00 in0.0 mm 0.00 in0.0 mm
01:15 PM 43.9°F6.6°C 31.3°F-0.4°C 61% 0.7 mph SW1.1 kmh SW 4.5 mph7.2 kmh 30.35 in1027.8 mb 0.00 in0.0 mm 0.00 in0.0 mm 0.00 in0.0 mm
01:20 PM 44.6°F7.0°C 31.6°F-0.2°C 60% 1.6 mph WSW2.6 kmh WSW 4.5 mph7.2 kmh 30.35 in1027.8 mb 0.00 in0.0 mm 0.00 in0.0 mm 0.00 in0.0 mm
01:25 PM 44.6°F7.0°C 30.7°F-0.7°C 58% 0.7 mph SW1.1 kmh SW 3.1 mph5.0 kmh 30.35 in1027.8 mb 0.00 in0.0 mm 0.00 in0.0 mm 0.00 in0.0 mm
01:30 PM 45.0°F7.2°C 31.5°F-0.3°C 59% 2.2 mph W3.5 kmh W 3.8 mph6.1 kmh 30.35 in1027.8 mb 0.00 in0.0 mm 0.00 in0.0 mm 0.00 in0.0 mm
01:35 PM 45.0°F7.2°C 30.2°F-1.0°C 56% 0.7 mph NW1.1 kmh NW 3.8 mph6.1 kmh 30.35 in1027.8 mb 0.00 in0.0 mm 0.00 in0.0 mm 0.00 in0.0 mm
01:40 PM 45.1°F7.3°C 29.5°F-1.4°C 54% 1.6 mph NW2.6 kmh NW 4.5 mph7.2 kmh 30.34 in1027.4 mb 0.00 in0.0 mm 0.00 in0.0 mm 0.00 in0.0 mm
01:45 PM 45.5°F7.5°C 29.8°F-1.2°C 54% 2.2 mph W3.5 kmh W 4.5 mph7.2 kmh 30.34 in1027.4 mb 0.00 in0.0 mm 0.00 in0.0 mm 0.00 in0.0 mm
01:50 PM 46.0°F7.8°C 29.9°F-1.2°C 53% 1.6 mph SSW2.6 kmh SSW 3.1 mph5.0 kmh 30.34 in1027.4 mb 0.00 in0.0 mm 0.00 in0.0 mm 0.00 in0.0 mm
01:55 PM 45.9°F7.7°C 29.2°F-1.6°C 52% 1.6 mph ESE2.6 kmh ESE 3.8 mph6.1 kmh 30.34 in1027.4 mb 0.00 in0.0 mm 0.00 in0.0 mm 0.00 in0.0 mm
02:00 PM 46.2°F7.9°C 29.1°F-1.6°C 51% 1.6 mph E2.6 kmh E 3.8 mph6.1 kmh 30.34 in1027.4 mb 0.00 in0.0 mm 0.00 in0.0 mm 0.00 in0.0 mm
02:05 PM 46.6°F8.1°C 28.5°F-1.9°C 49% 2.2 mph SE3.5 kmh SE 3.8 mph6.1 kmh 30.33 in1027.1 mb 0.00 in0.0 mm 0.00 in0.0 mm 0.00 in0.0 mm
02:10 PM 46.6°F8.1°C 28.0°F-2.2°C 48% 3.8 mph SE6.1 kmh SE 6.0 mph9.7 kmh 30.33 in1027.1 mb 0.00 in0.0 mm 0.00 in0.0 mm 0.00 in0.0 mm
02:15 PM 46.2°F7.9°C 27.6°F-2.4°C 48% 3.1 mph SE5.0 kmh SE 6.9 mph11.1 kmh 30.32 in1026.8 mb 0.00 in0.0 mm 0.00 in0.0 mm 0.00 in0.0 mm
02:20 PM 46.0°F7.8°C 27.0°F-2.8°C 47% 1.6 mph SE2.6 kmh SE 6.9 mph11.1 kmh 30.32 in1026.8 mb 0.00 in0.0 mm 0.00 in0.0 mm 0.00 in0.0 mm
02:25 PM 46.4°F8.0°C 27.8°F-2.3°C 48% 3.1 mph SE5.0 kmh SE 6.0 mph9.7 kmh 30.33 in1027.1 mb 0.00 in0.0 mm 0.00 in0.0 mm 0.00 in0.0 mm
02:30 PM 46.8°F8.2°C 28.1°F-2.2°C 48% 1.6 mph SE2.6 kmh SE 5.4 mph8.7 kmh 30.33 in1027.1 mb 0.00 in0.0 mm 0.00 in0.0 mm 0.00 in0.0 mm
02:35 PM 46.9°F8.3°C 28.3°F-2.1°C 48% 1.6 mph WNW2.6 kmh WNW 5.4 mph8.7 kmh 30.32 in1026.8 mb 0.00 in0.0 mm 0.00 in0.0 mm 0.00 in0.0 mm
02:40 PM 47.1°F8.4°C 29.0°F-1.7°C 49% 1.6 mph WNW2.6 kmh WNW 4.5 mph7.2 kmh 30.33 in1027.1 mb 0.00 in0.0 mm 0.00 in0.0 mm 0.00 in0.0 mm
02:45 PM 47.1°F8.4°C 28.5°F-1.9°C 48% 0.7 mph WNW1.1 kmh WNW 3.8 mph6.1 kmh 30.32 in1026.8 mb 0.00 in0.0 mm 0.00 in0.0 mm 0.00 in0.0 mm
02:50 PM 47.1°F8.4°C 27.9°F-2.3°C 47% 1.6 mph NE2.6 kmh NE 5.4 mph8.7 kmh 30.32 in1026.8 mb 0.00 in0.0 mm 0.00 in0.0 mm 0.00 in0.0 mm
02:55 PM 47.3°F8.5°C 28.1°F-2.2°C 47% 1.6 mph NE2.6 kmh NE 5.4 mph8.7 kmh 30.32 in1026.8 mb 0.00 in0.0 mm 0.00 in0.0 mm 0.00 in0.0 mm
03:00 PM 47.7°F8.7°C 28.4°F-2.0°C 47% 4.5 mph N7.2 kmh N 6.0 mph9.7 kmh 30.32 in1026.8 mb 0.00 in0.0 mm 0.00 in0.0 mm 0.00 in0.0 mm
03:05 PM 47.5°F8.6°C 27.7°F-2.4°C 46% 2.2 mph N3.5 kmh N 7.6 mph12.2 kmh 30.32 in1026.8 mb 0.00 in0.0 mm 0.00 in0.0 mm 0.00 in0.0 mm
03:10 PM 47.5°F8.6°C 27.2°F-2.7°C 45% 2.2 mph NNE3.5 kmh NNE 7.6 mph12.2 kmh 30.32 in1026.8 mb 0.00 in0.0 mm 0.00 in0.0 mm 0.00 in0.0 mm
03:15 PM 47.7°F8.7°C 27.4°F-2.6°C 45% 1.6 mph NNE2.6 kmh NNE 6.0 mph9.7 kmh 30.31 in1026.4 mb 0.00 in0.0 mm 0.00 in0.0 mm 0.00 in0.0 mm
03:20 PM 47.7°F8.7°C 27.4°F-2.6°C 45% 3.1 mph NNW5.0 kmh NNW 6.0 mph9.7 kmh 30.31 in1026.4 mb 0.00 in0.0 mm 0.00 in0.0 mm 0.00 in0.0 mm
03:25 PM 47.8°F8.8°C 27.5°F-2.5°C 45% 2.2 mph NW3.5 kmh NW 5.4 mph8.7 kmh 30.31 in1026.4 mb 0.00 in0.0 mm 0.00 in0.0 mm 0.00 in0.0 mm
03:30 PM 47.8°F8.8°C 27.5°F-2.5°C 45% 5.4 mph N8.7 kmh N 6.0 mph9.7 kmh 30.31 in1026.4 mb 0.00 in0.0 mm 0.00 in0.0 mm 0.00 in0.0 mm
03:35 PM 48.0°F8.9°C 27.7°F-2.4°C 45% 2.2 mph N3.5 kmh N 6.0 mph9.7 kmh 30.32 in1026.8 mb 0.00 in0.0 mm 0.00 in0.0 mm 0.00 in0.0 mm
03:40 PM 48.2°F9.0°C 25.6°F-3.6°C 41% 2.2 mph N3.5 kmh N 6.0 mph9.7 kmh 30.32 in1026.8 mb 0.00 in0.0 mm 0.00 in0.0 mm 0.00 in0.0 mm
03:45 PM 48.2°F9.0°C 26.2°F-3.2°C 42% 1.6 mph N2.6 kmh N 8.3 mph13.4 kmh 30.32 in1026.8 mb 0.00 in0.0 mm 0.00 in0.0 mm 0.00 in0.0 mm
03:50 PM 48.2°F9.0°C 25.0°F-3.9°C 40% 0.7 mph NE1.1 kmh NE 8.3 mph13.4 kmh 30.32 in1026.8 mb 0.00 in0.0 mm 0.00 in0.0 mm 0.00 in0.0 mm
03:55 PM 48.2°F9.0°C 25.6°F-3.6°C 41% 2.2 mph E3.5 kmh E 6.0 mph9.7 kmh 30.32 in1026.8 mb 0.00 in0.0 mm 0.00 in0.0 mm 0.00 in0.0 mm
04:00 PM 48.2°F9.0°C 25.6°F-3.6°C 41% 1.6 mph E2.6 kmh E 6.0 mph9.7 kmh 30.32 in1026.8 mb 0.00 in0.0 mm 0.00 in0.0 mm 0.00 in0.0 mm
04:05 PM 48.0°F8.9°C 26.0°F-3.3°C 42% 2.2 mph SE3.5 kmh SE 3.8 mph6.1 kmh 30.32 in1026.8 mb 0.00 in0.0 mm 0.00 in0.0 mm 0.00 in0.0 mm
04:10 PM 47.7°F8.7°C 26.3°F-3.2°C 43% 1.6 mph ESE2.6 kmh ESE 5.4 mph8.7 kmh 30.32 in1026.8 mb 0.00 in0.0 mm 0.00 in0.0 mm 0.00 in0.0 mm
04:15 PM 47.7°F8.7°C 26.8°F-2.9°C 44% 2.2 mph ENE3.5 kmh ENE 5.4 mph8.7 kmh 30.31 in1026.4 mb 0.00 in0.0 mm 0.00 in0.0 mm 0.00 in0.0 mm
04:20 PM 47.3°F8.5°C 26.0°F-3.3°C 43% 1.6 mph E2.6 kmh E 5.4 mph8.7 kmh 30.31 in1026.4 mb 0.00 in0.0 mm 0.00 in0.0 mm 0.00 in0.0 mm
04:25 PM 47.1°F8.4°C 26.3°F-3.2°C 44% 3.1 mph SSE5.0 kmh SSE 4.5 mph7.2 kmh 30.31 in1026.4 mb 0.00 in0.0 mm 0.00 in0.0 mm 0.00 in0.0 mm
04:30 PM 47.1°F8.4°C 26.3°F-3.2°C 44% 1.6 mph SSE2.6 kmh SSE 6.0 mph9.7 kmh 30.31 in1026.4 mb 0.00 in0.0 mm 0.00 in0.0 mm 0.00 in0.0 mm
04:35 PM 46.9°F8.3°C 25.6°F-3.6°C 43% 0.7 mph S1.1 kmh S 6.0 mph9.7 kmh 30.30 in1026.1 mb 0.00 in0.0 mm 0.00 in0.0 mm 0.00 in0.0 mm
04:40 PM 46.9°F8.3°C 26.7°F-2.9°C 45% 1.6 mph S2.6 kmh S 5.4 mph8.7 kmh 30.31 in1026.4 mb 0.00 in0.0 mm 0.00 in0.0 mm 0.00 in0.0 mm
04:45 PM 46.9°F8.3°C 26.2°F-3.2°C 44% 2.2 mph SE3.5 kmh SE 3.8 mph6.1 kmh 30.31 in1026.4 mb 0.00 in0.0 mm 0.00 in0.0 mm 0.00 in0.0 mm
04:50 PM 46.9°F8.3°C 25.6°F-3.6°C 43% Calm Calm 3.8 mph6.1 kmh 30.31 in1026.4 mb 0.00 in0.0 mm 0.00 in0.0 mm 0.00 in0.0 mm
04:55 PM 46.8°F8.2°C 25.5°F-3.6°C 43% 0.7 mph SSW1.1 kmh SSW 3.8 mph6.1 kmh 30.31 in1026.4 mb 0.00 in0.0 mm 0.00 in0.0 mm 0.00 in0.0 mm
05:00 PM 46.9°F8.3°C 26.7°F-2.9°C 45% Calm Calm 3.8 mph6.1 kmh 30.31 in1026.4 mb 0.00 in0.0 mm 0.00 in0.0 mm 0.00 in0.0 mm
05:05 PM 46.9°F8.3°C 26.2°F-3.2°C 44% Calm Calm 2.2 mph3.5 kmh 30.31 in1026.4 mb 0.00 in0.0 mm 0.00 in0.0 mm 0.00 in0.0 mm
05:10 PM 46.9°F8.3°C 26.2°F-3.2°C 44% 0.7 mph NW1.1 kmh NW 3.1 mph5.0 kmh 30.31 in1026.4 mb 0.00 in0.0 mm 0.00 in0.0 mm 0.00 in0.0 mm
05:15 PM 46.9°F8.3°C 26.7°F-2.9°C 45% 0.7 mph S1.1 kmh S 4.5 mph7.2 kmh 30.31 in1026.4 mb 0.00 in0.0 mm 0.00 in0.0 mm 0.00 in0.0 mm
05:20 PM 46.9°F8.3°C 26.7°F-2.9°C 45% 2.2 mph ESE3.5 kmh ESE 4.5 mph7.2 kmh 30.31 in1026.4 mb 0.00 in0.0 mm 0.00 in0.0 mm 0.00 in0.0 mm
05:25 PM 46.9°F8.3°C 26.2°F-3.2°C 44% Calm Calm 3.8 mph6.1 kmh 30.31 in1026.4 mb 0.00 in0.0 mm 0.00 in0.0 mm 0.00 in0.0 mm
05:30 PM 46.8°F8.2°C 26.6°F-3.0°C 45% Calm Calm 3.8 mph6.1 kmh 30.30 in1026.1 mb 0.00 in0.0 mm 0.00 in0.0 mm 0.00 in0.0 mm
05:35 PM 46.6°F8.1°C 25.9°F-3.4°C 44% 0.7 mph WNW1.1 kmh WNW 2.2 mph3.5 kmh 30.31 in1026.4 mb 0.00 in0.0 mm 0.00 in0.0 mm 0.00 in0.0 mm
05:40 PM 46.6°F8.1°C 26.4°F-3.1°C 45% 2.2 mph SE3.5 kmh SE 4.5 mph7.2 kmh 30.31 in1026.4 mb 0.00 in0.0 mm 0.00 in0.0 mm 0.00 in0.0 mm
05:45 PM 46.4°F8.0°C 26.2°F-3.2°C 45% 0.7 mph SE1.1 kmh SE 4.5 mph7.2 kmh 30.31 in1026.4 mb 0.00 in0.0 mm 0.00 in0.0 mm 0.00 in0.0 mm
05:50 PM 46.4°F8.0°C 25.7°F-3.5°C 44% Calm Calm 4.5 mph7.2 kmh 30.31 in1026.4 mb 0.00 in0.0 mm 0.00 in0.0 mm 0.00 in0.0 mm
05:55 PM 46.2°F7.9°C 25.0°F-3.9°C 43% 0.7 mph SE1.1 kmh SE 2.2 mph3.5 kmh 30.31 in1026.4 mb 0.00 in0.0 mm 0.00 in0.0 mm 0.00 in0.0 mm
06:00 PM 46.2°F7.9°C 25.0°F-3.9°C 43% 1.6 mph SSW2.6 kmh SSW 3.8 mph6.1 kmh 30.32 in1026.8 mb 0.00 in0.0 mm 0.00 in0.0 mm 0.00 in0.0 mm
06:05 PM 46.0°F7.8°C 24.8°F-4.0°C 43% 0.7 mph SW1.1 kmh SW 3.8 mph6.1 kmh 30.32 in1026.8 mb 0.00 in0.0 mm 0.00 in0.0 mm 0.00 in0.0 mm
06:10 PM 45.9°F7.7°C 25.2°F-3.8°C 44% 0.7 mph SW1.1 kmh SW 3.8 mph6.1 kmh 30.32 in1026.8 mb 0.00 in0.0 mm 0.00 in0.0 mm 0.00 in0.0 mm
06:15 PM 45.7°F7.6°C 25.0°F-3.9°C 44% 0.7 mph S1.1 kmh S 2.2 mph3.5 kmh 30.32 in1026.8 mb 0.00 in0.0 mm 0.00 in0.0 mm 0.00 in0.0 mm
06:20 PM 45.5°F7.5°C 24.9°F-3.9°C 44% Calm Calm 2.2 mph3.5 kmh 30.32 in1026.8 mb 0.00 in0.0 mm 0.00 in0.0 mm 0.00 in0.0 mm
06:25 PM 45.3°F7.4°C 24.7°F-4.1°C 44% 0.7 mph SW1.1 kmh SW 2.2 mph3.5 kmh 30.32 in1026.8 mb 0.00 in0.0 mm 0.00 in0.0 mm 0.00 in0.0 mm
06:30 PM 45.0°F7.2°C 24.9°F-3.9°C 45% 0.7 mph S1.1 kmh S 1.6 mph2.6 kmh 30.32 in1026.8 mb 0.00 in0.0 mm 0.00 in0.0 mm 0.00 in0.0 mm
06:35 PM 45.0°F7.2°C 24.9°F-3.9°C 45% Calm Calm 1.6 mph2.6 kmh 30.33 in1027.1 mb 0.00 in0.0 mm 0.00 in0.0 mm 0.00 in0.0 mm
06:40 PM 44.4°F6.9°C 26.0°F-3.3°C 48% 0.7 mph E1.1 kmh E 1.6 mph2.6 kmh 30.32 in1026.8 mb 0.00 in0.0 mm 0.00 in0.0 mm 0.00 in0.0 mm
06:45 PM 43.9°F6.6°C 26.0°F-3.3°C 49% Calm Calm 1.6 mph2.6 kmh 30.33 in1027.1 mb 0.00 in0.0 mm 0.00 in0.0 mm 0.00 in0.0 mm
06:50 PM 43.5°F6.4°C 26.6°F-3.0°C 51% 1.6 mph ENE2.6 kmh ENE 2.2 mph3.5 kmh 30.33 in1027.1 mb 0.00 in0.0 mm 0.00 in0.0 mm 0.00 in0.0 mm
06:55 PM 43.0°F6.1°C 27.0°F-2.8°C 53% Calm Calm 2.2 mph3.5 kmh 30.34 in1027.4 mb 0.00 in0.0 mm 0.00 in0.0 mm 0.00 in0.0 mm
07:00 PM 42.4°F5.8°C 27.4°F-2.6°C 55% 0.7 mph NE1.1 kmh NE 2.2 mph3.5 kmh 30.33 in1027.1 mb 0.00 in0.0 mm 0.00 in0.0 mm 0.00 in0.0 mm
07:05 PM 42.3°F5.7°C 27.3°F-2.6°C 55% 0.7 mph SSE1.1 kmh SSE 2.2 mph3.5 kmh 30.33 in1027.1 mb 0.00 in0.0 mm 0.00 in0.0 mm 0.00 in0.0 mm
07:10 PM 42.3°F5.7°C 27.3°F-2.6°C 55% 0.7 mph E1.1 kmh E 3.1 mph5.0 kmh 30.34 in1027.4 mb 0.00 in0.0 mm 0.00 in0.0 mm 0.00 in0.0 mm
07:15 PM 42.3°F5.7°C 27.3°F-2.6°C 55% 0.7 mph NE1.1 kmh NE 3.1 mph5.0 kmh 30.34 in1027.4 mb 0.00 in0.0 mm 0.00 in0.0 mm 0.00 in0.0 mm
07:20 PM 41.7°F5.4°C 27.6°F-2.4°C 57% 0.7 mph NNE1.1 kmh NNE 2.2 mph3.5 kmh 30.34 in1027.4 mb 0.00 in0.0 mm 0.00 in0.0 mm 0.00 in0.0 mm
07:25 PM 41.2°F5.1°C 27.5°F-2.5°C 58% 1.6 mph NE2.6 kmh NE 2.2 mph3.5 kmh 30.34 in1027.4 mb 0.00 in0.0 mm 0.00 in0.0 mm 0.00 in0.0 mm
07:30 PM 40.6°F4.8°C 27.9°F-2.3°C 60% 1.6 mph E2.6 kmh E 3.8 mph6.1 kmh 30.34 in1027.4 mb 0.00 in0.0 mm 0.00 in0.0 mm 0.00 in0.0 mm
07:35 PM 40.5°F4.7°C 28.1°F-2.2°C 61% 1.6 mph ENE2.6 kmh ENE 3.8 mph6.1 kmh 30.34 in1027.4 mb 0.00 in0.0 mm 0.00 in0.0 mm 0.00 in0.0 mm
07:40 PM 39.9°F4.4°C 27.6°F-2.4°C 61% 1.6 mph NE2.6 kmh NE 3.1 mph5.0 kmh 30.35 in1027.8 mb 0.00 in0.0 mm 0.00 in0.0 mm 0.00 in0.0 mm
07:45 PM 39.6°F4.2°C 27.6°F-2.4°C 62% 1.6 mph NE2.6 kmh NE 3.1 mph5.0 kmh 30.34 in1027.4 mb 0.00 in0.0 mm 0.00 in0.0 mm 0.00 in0.0 mm
07:50 PM 38.8°F3.8°C 28.1°F-2.2°C 65% 2.2 mph NNE3.5 kmh NNE 3.8 mph6.1 kmh 30.35 in1027.8 mb 0.00 in0.0 mm 0.00 in0.0 mm 0.00 in0.0 mm
07:55 PM 37.9°F3.3°C 27.2°F-2.7°C 65% 3.8 mph NNE6.1 kmh NNE 4.5 mph7.2 kmh 30.35 in1027.8 mb 0.00 in0.0 mm 0.00 in0.0 mm 0.00 in0.0 mm
08:00 PM 37.4°F3.0°C 26.7°F-2.9°C 65% 3.1 mph NE5.0 kmh NE 4.5 mph7.2 kmh 30.35 in1027.8 mb 0.00 in0.0 mm 0.00 in0.0 mm 0.00 in0.0 mm
08:05 PM 37.4°F3.0°C 26.7°F-2.9°C 65% 3.1 mph NE5.0 kmh NE 4.5 mph7.2 kmh 30.35 in1027.8 mb 0.00 in0.0 mm 0.00 in0.0 mm 0.00 in0.0 mm
08:10 PM 37.2°F2.9°C 25.0°F-3.9°C 61% 1.6 mph NE2.6 kmh NE 4.5 mph7.2 kmh 30.35 in1027.8 mb 0.00 in0.0 mm 0.00 in0.0 mm 0.00 in0.0 mm
08:15 PM 37.2°F2.9°C 24.6°F-4.1°C 60% 0.7 mph NE1.1 kmh NE 4.5 mph7.2 kmh 30.35 in1027.8 mb 0.00 in0.0 mm 0.00 in0.0 mm 0.00 in0.0 mm
08:20 PM 37.2°F2.9°C 25.0°F-3.9°C 61% 0.7 mph E1.1 kmh E 3.8 mph6.1 kmh 30.36 in1028.1 mb 0.00 in0.0 mm 0.00 in0.0 mm 0.00 in0.0 mm
08:25 PM 36.9°F2.7°C 24.7°F-4.1°C 61% 0.7 mph SE1.1 kmh SE 2.2 mph3.5 kmh 30.36 in1028.1 mb 0.00 in0.0 mm 0.00 in0.0 mm 0.00 in0.0 mm
08:30 PM 36.7°F2.6°C 24.9°F-3.9°C 62% 1.6 mph SSE2.6 kmh SSE 3.1 mph5.0 kmh 30.36 in1028.1 mb 0.00 in0.0 mm 0.00 in0.0 mm 0.00 in0.0 mm
08:35 PM 36.7°F2.6°C 24.9°F-3.9°C 62% 0.7 mph S1.1 kmh S 3.1 mph5.0 kmh 30.35 in1027.8 mb 0.00 in0.0 mm 0.00 in0.0 mm 0.00 in0.0 mm
08:40 PM 36.5°F2.5°C 25.1°F-3.8°C 63% 1.6 mph SE2.6 kmh SE 2.2 mph3.5 kmh 30.36 in1028.1 mb 0.00 in0.0 mm 0.00 in0.0 mm 0.00 in0.0 mm
08:45 PM 36.3°F2.4°C 25.3°F-3.7°C 64% 1.6 mph NE2.6 kmh NE 3.1 mph5.0 kmh 30.36 in1028.1 mb 0.00 in0.0 mm 0.00 in0.0 mm 0.00 in0.0 mm
08:50 PM 36.1°F2.3°C 25.2°F-3.8°C 64% 1.6 mph NE2.6 kmh NE 3.8 mph6.1 kmh 30.37 in1028.4 mb 0.00 in0.0 mm 0.00 in0.0 mm 0.00 in0.0 mm
08:55 PM 36.0°F2.2°C 24.6°F-4.1°C 63% 0.7 mph NE1.1 kmh NE 3.8 mph6.1 kmh 30.36 in1028.1 mb 0.00 in0.0 mm 0.00 in0.0 mm 0.00 in0.0 mm
09:00 PM 36.0°F2.2°C 24.6°F-4.1°C 63% 2.2 mph NE3.5 kmh NE 3.1 mph5.0 kmh 30.37 in1028.4 mb 0.00 in0.0 mm 0.00 in0.0 mm 0.00 in0.0 mm
09:05 PM 35.8°F2.1°C 24.4°F-4.2°C 63% 3.1 mph NE5.0 kmh NE 4.5 mph7.2 kmh 30.37 in1028.4 mb 0.00 in0.0 mm 0.00 in0.0 mm 0.00 in0.0 mm
09:10 PM 35.6°F2.0°C 24.6°F-4.1°C 64% 1.6 mph NE2.6 kmh NE 4.5 mph7.2 kmh 30.37 in1028.4 mb 0.00 in0.0 mm 0.00 in0.0 mm 0.00 in0.0 mm
09:15 PM 35.4°F1.9°C 24.8°F-4.0°C 65% 0.7 mph ENE1.1 kmh ENE 4.5 mph7.2 kmh 30.37 in1028.4 mb 0.00 in0.0 mm 0.00 in0.0 mm 0.00 in0.0 mm
09:20 PM 35.1°F1.7°C 24.5°F-4.2°C 65% 0.7 mph NE1.1 kmh NE 2.2 mph3.5 kmh 30.37 in1028.4 mb 0.00 in0.0 mm 0.00 in0.0 mm 0.00 in0.0 mm
09:25 PM 34.7°F1.5°C 24.5°F-4.2°C 66% Calm Calm 2.2 mph3.5 kmh 30.38 in1028.8 mb 0.00 in0.0 mm 0.00 in0.0 mm 0.00 in0.0 mm
09:30 PM 34.5°F1.4°C 24.4°F-4.2°C 66% Calm Calm 1.6 mph2.6 kmh 30.38 in1028.8 mb 0.00 in0.0 mm 0.00 in0.0 mm 0.00 in0.0 mm
09:35 PM 34.3°F1.3°C 24.5°F-4.2°C 67% Calm Calm 1.6 mph2.6 kmh 30.38 in1028.8 mb 0.00 in0.0 mm 0.00 in0.0 mm 0.00 in0.0 mm
09:40 PM 34.3°F1.3°C 24.9°F-3.9°C 68% 1.6 mph ESE2.6 kmh ESE 2.2 mph3.5 kmh 30.38 in1028.8 mb 0.00 in0.0 mm 0.00 in0.0 mm 0.00 in0.0 mm
09:45 PM 34.3°F1.3°C 25.2°F-3.8°C 69% 0.7 mph E1.1 kmh E 2.2 mph3.5 kmh 30.38 in1028.8 mb 0.00 in0.0 mm 0.00 in0.0 mm 0.00 in0.0 mm
09:50 PM 34.5°F1.4°C 25.8°F-3.4°C 70% 0.7 mph E1.1 kmh E 2.2 mph3.5 kmh 30.37 in1028.4 mb 0.00 in0.0 mm 0.00 in0.0 mm 0.00 in0.0 mm
09:55 PM 34.5°F1.4°C 26.1°F-3.3°C 71% Calm Calm 2.2 mph3.5 kmh 30.38 in1028.8 mb 0.00 in0.0 mm 0.00 in0.0 mm 0.00 in0.0 mm
10:00 PM 34.5°F1.4°C 26.1°F-3.3°C 71% 1.6 mph ENE2.6 kmh ENE 2.2 mph3.5 kmh 30.38 in1028.8 mb 0.00 in0.0 mm 0.00 in0.0 mm 0.00 in0.0 mm
10:05 PM 34.5°F1.4°C 26.4°F-3.1°C 72% 0.7 mph NE1.1 kmh NE 3.1 mph5.0 kmh 30.38 in1028.8 mb 0.00 in0.0 mm 0.00 in0.0 mm 0.00 in0.0 mm
10:10 PM 34.3°F1.3°C 26.3°F-3.2°C 72% 1.6 mph NE2.6 kmh NE 3.1 mph5.0 kmh 30.38 in1028.8 mb 0.00 in0.0 mm 0.00 in0.0 mm 0.00 in0.0 mm
10:15 PM 34.5°F1.4°C 26.4°F-3.1°C 72% 1.6 mph NNE2.6 kmh NNE 3.1 mph5.0 kmh 30.38 in1028.8 mb 0.00 in0.0 mm 0.00 in0.0 mm 0.00 in0.0 mm
10:20 PM 34.5°F1.4°C 26.4°F-3.1°C 72% 1.6 mph NE2.6 kmh NE 4.5 mph7.2 kmh 30.38 in1028.8 mb 0.00 in0.0 mm 0.00 in0.0 mm 0.00 in0.0 mm
10:25 PM 34.5°F1.4°C 26.4°F-3.1°C 72% 0.7 mph NNE1.1 kmh NNE 4.5 mph7.2 kmh 30.38 in1028.8 mb 0.00 in0.0 mm 0.00 in0.0 mm 0.00 in0.0 mm
10:30 PM 34.5°F1.4°C 26.4°F-3.1°C 72% 0.7 mph N1.1 kmh N 3.1 mph5.0 kmh 30.38 in1028.8 mb 0.00 in0.0 mm 0.00 in0.0 mm 0.00 in0.0 mm
10:35 PM 34.5°F1.4°C 26.4°F-3.1°C 72% Calm Calm 1.6 mph2.6 kmh 30.38 in1028.8 mb 0.00 in0.0 mm 0.00 in0.0 mm 0.00 in0.0 mm
10:40 PM 34.5°F1.4°C 26.4°F-3.1°C 72% Calm Calm 1.6 mph2.6 kmh 30.38 in1028.8 mb 0.00 in0.0 mm 0.00 in0.0 mm 0.00 in0.0 mm
10:45 PM 34.5°F1.4°C 26.4°F-3.1°C 72% Calm Calm 0.7 mph1.1 kmh 30.39 in1029.1 mb 0.00 in0.0 mm 0.00 in0.0 mm 0.00 in0.0 mm
10:50 PM 34.5°F1.4°C 26.4°F-3.1°C 72% 0.7 mph E1.1 kmh E 1.6 mph2.6 kmh 30.39 in1029.1 mb 0.00 in0.0 mm 0.00 in0.0 mm 0.00 in0.0 mm
10:55 PM 34.7°F1.5°C 26.6°F-3.0°C 72% 1.6 mph ESE2.6 kmh ESE 2.2 mph3.5 kmh 30.39 in1029.1 mb 0.00 in0.0 mm 0.00 in0.0 mm 0.00 in0.0 mm
11:00 PM 34.7°F1.5°C 27.0°F-2.8°C 73% Calm Calm 2.2 mph3.5 kmh 30.39 in1029.1 mb 0.00 in0.0 mm 0.00 in0.0 mm 0.00 in0.0 mm
11:05 PM 34.9°F1.6°C 27.1°F-2.7°C 73% 1.6 mph SE2.6 kmh SE 2.2 mph3.5 kmh 30.38 in1028.8 mb 0.00 in0.0 mm 0.00 in0.0 mm 0.00 in0.0 mm
11:10 PM 34.7°F1.5°C 27.0°F-2.8°C 73% 0.7 mph ESE1.1 kmh ESE 2.2 mph3.5 kmh 30.38 in1028.8 mb 0.00 in0.0 mm 0.00 in0.0 mm 0.00 in0.0 mm
11:15 PM 34.5°F1.4°C 26.8°F-2.9°C 73% 0.7 mph E1.1 kmh E 2.2 mph3.5 kmh 30.38 in1028.8 mb 0.00 in0.0 mm 0.00 in0.0 mm 0.00 in0.0 mm
11:20 PM 34.3°F1.3°C 26.6°F-3.0°C 73% 0.7 mph E1.1 kmh E 2.2 mph3.5 kmh 30.38 in1028.8 mb 0.00 in0.0 mm 0.00 in0.0 mm 0.00 in0.0 mm
11:25 PM 34.2°F1.2°C 26.4°F-3.1°C 73% 2.2 mph E3.5 kmh E 3.1 mph5.0 kmh 30.38 in1028.8 mb 0.00 in0.0 mm 0.00 in0.0 mm 0.00 in0.0 mm
11:30 PM 33.8°F1.0°C 26.1°F-3.3°C 73% 1.6 mph E2.6 kmh E 3.1 mph5.0 kmh 30.38 in1028.8 mb 0.00 in0.0 mm 0.00 in0.0 mm 0.00 in0.0 mm
11:35 PM 33.6°F0.9°C 26.6°F-3.0°C 75% 0.7 mph ENE1.1 kmh ENE 3.1 mph5.0 kmh 30.38 in1028.8 mb 0.00 in0.0 mm 0.00 in0.0 mm 0.00 in0.0 mm
11:40 PM 33.4°F0.8°C 26.4°F-3.1°C 75% 0.7 mph NE1.1 kmh NE 2.2 mph3.5 kmh 30.38 in1028.8 mb 0.00 in0.0 mm 0.00 in0.0 mm 0.00 in0.0 mm
11:45 PM 33.3°F0.7°C 26.2°F-3.2°C 75% 0.7 mph NE1.1 kmh NE 2.2 mph3.5 kmh 30.38 in1028.8 mb 0.00 in0.0 mm 0.00 in0.0 mm 0.00 in0.0 mm
11:50 PM 33.1°F0.6°C 26.0°F-3.3°C 75% 0.7 mph NE1.1 kmh NE 2.2 mph3.5 kmh 30.38 in1028.8 mb 0.00 in0.0 mm 0.00 in0.0 mm 0.00 in0.0 mm
11:55 PM 33.1°F0.6°C 26.4°F-3.1°C 76% Calm Calm 2.2 mph3.5 kmh 30.39 in1029.1 mb 0.00 in0.0 mm 0.00 in0.0 mm 0.00 in0.0 mm